Annabella, Utah
Current Conditions -  °F | °C
As of 8:55 AM on Friday 24 Oct 2014 (Local Time) from KDTA Reporting Station
Clear Clear  
Wind Chill: 53°   Ceiling: Unl
Heat Index: 53°   Visibility: 10mi
Dew Point: 29°   Wind: 9mph
Humidity: 39%   Direction: 180°S
Pressure: 30.21"   Gusts: NA
Location:  38.71°N, 112.06°W
Report Text: KDTA 241455Z AUTO 18008KT 10SM CLR 12/M02 A3021 RMK AO1 T01181019
Loading
Personal Weather Stations






























Interactive Weather Map
Tropical Storm Tracking
New forecast layout! Learn more

10-Day Weather Forecast

Advertisements
Track Severe Weather on mobile